Time;durP1;ratioP1;P1;durP2;ratioP2;P2;SDS_P1;SDS_P2;PMS_P1;PMS_P2;Temp;Humidity;BMP_temperature;BMP_pressure;BME280_temperature;BME280_humidity;BME280_pressure;Samples;Min_cycle;Max_cycle;Signal;HPM_P1;HPM_P2
2023/01/08 00:01:27;;;;;;;3.57;3.27;;;9.30;1.00;;;;;;5059512;28;20494;-63
2023/01/08 00:03:54;;;;;;;3.23;2.80;;;9.20;99.90;;;;;;5059792;28;20468;-64
2023/01/08 00:06:21;;;;;;;3.67;3.00;;;9.20;99.90;;;;;;5059686;28;20465;-64
2023/01/08 00:08:48;;;;;;;3.90;3.00;;;9.20;99.90;;;;;;5059333;28;20516;-64
2023/01/08 00:11:19;;;;;;;5.80;3.10;;;9.20;1.00;;;;;;5059815;28;20557;-63
2023/01/08 00:13:46;;;;;;;3.30;2.90;;;9.10;1.00;;;;;;5059943;28;20429;-63
2023/01/08 00:16:16;;;;;;;6.20;2.87;;;9.00;1.00;;;;;;5059746;28;20444;-63
2023/01/08 00:18:44;;;;;;;3.40;3.00;;;9.10;1.00;;;;;;5060177;28;20474;-63
2023/01/08 00:21:12;;;;;;;4.07;2.80;;;9.10;1.00;;;;;;5059443;28;20490;-63
2023/01/08 00:23:39;;;;;;;3.47;2.60;;;9.00;1.00;;;;;;5059783;28;20914;-63
2023/01/08 00:26:08;;;;;;;4.67;2.90;;;9.00;1.00;;;;;;5059470;28;20474;-63
2023/01/08 00:28:36;;;;;;;4.33;3.10;;;9.10;1.00;;;;;;5059657;28;20812;-63
2023/01/08 00:31:04;;;;;;;3.50;3.10;;;9.10;99.90;;;;;;5059743;28;20846;-63
2023/01/08 00:33:33;;;;;;;4.50;3.13;;;9.10;99.90;;;;;;5059473;28;20466;-64
2023/01/08 00:36:01;;;;;;;4.10;3.20;;;9.10;99.90;;;;;;5059467;28;20468;-64
2023/01/08 00:38:28;;;;;;;3.90;2.80;;;9.10;25.60;;;;;;5059812;28;20842;-63
2023/01/08 00:40:55;;;;;;;4.43;3.10;;;9.10;1.00;;;;;;5059705;28;20494;-63
2023/01/08 00:43:22;;;;;;;2.83;2.23;;;9.10;1.00;;;;;;5059756;28;20481;-62
2023/01/08 00:45:52;;;;;;;4.03;3.10;;;9.00;1.00;;;;;;5059361;28;20448;-63
2023/01/08 00:48:21;;;;;;;3.97;2.67;;;9.00;1.00;;;;;;5059255;28;20941;-63
2023/01/08 00:50:49;;;;;;;3.10;2.60;;;9.00;1.00;;;;;;5059335;28;20790;-63
2023/01/08 00:53:17;;;;;;;3.10;2.27;;;9.00;1.00;;;;;;5059094;28;20469;-62
2023/01/08 00:55:44;;;;;;;6.20;2.50;;;9.10;1.00;;;;;;5058563;28;20466;-63
2023/01/08 00:58:12;;;;;;;3.50;3.13;;;9.10;99.90;;;;;;5058929;28;20714;-62
2023/01/08 01:00:39;;;;;;;2.97;2.33;;;9.10;99.90;;;;;;5058902;28;20486;-62
2023/01/08 01:03:06;;;;;;;2.93;2.33;;;9.10;99.90;;;;;;5058705;28;20738;-62
2023/01/08 01:05:33;;;;;;;4.07;2.70;;;9.10;99.90;;;;;;5058665;28;20462;-62
2023/01/08 01:08:02;;;;;;;3.53;3.00;;;9.10;99.90;;;;;;5058685;28;20866;-62
2023/01/08 01:10:29;;;;;;;3.20;2.80;;;9.10;99.90;;;;;;5058557;28;20458;-62
2023/01/08 01:12:56;;;;;;;3.93;3.33;;;9.10;99.90;;;;;;5058040;28;20468;-62
2023/01/08 01:15:23;;;;;;;3.93;3.03;;;9.20;99.90;;;;;;5058209;28;20913;-62
2023/01/08 01:17:50;;;;;;;4.10;2.83;;;9.20;99.90;;;;;;5058672;28;20798;-62
2023/01/08 01:20:18;;;;;;;3.40;2.53;;;9.20;99.90;;;;;;5058453;28;20466;-62
2023/01/08 01:22:45;;;;;;;3.90;3.00;;;9.20;99.90;;;;;;5058327;28;20466;-62
2023/01/08 01:25:13;;;;;;;3.80;2.53;;;9.20;99.90;;;;;;5057773;28;20441;-62
2023/01/08 01:27:40;;;;;;;5.97;2.90;;;9.20;99.90;;;;;;5057734;28;20437;-62
2023/01/08 01:30:08;;;;;;;3.37;2.50;;;9.20;99.90;;;;;;5057408;28;20883;-63
2023/01/08 01:32:36;;;;;;;4.77;3.00;;;9.20;99.90;;;;;;5058043;28;20462;-63
2023/01/08 01:35:03;;;;;;;3.80;2.90;;;9.30;99.90;;;;;;5057282;28;20497;-62
2023/01/08 01:37:31;;;;;;;2.80;2.40;;;9.30;99.90;;;;;;5058138;28;20458;-62
2023/01/08 01:39:58;;;;;;;3.00;2.40;;;9.30;99.90;;;;;;5054170;28;20919;-62
2023/01/08 01:42:42;;;;;;;3.47;2.63;;;9.30;99.90;;;;;;5037505;28;20792;-62
2023/01/08 01:45:19;;;;;;;4.00;3.07;;;9.40;99.90;;;;;;5037845;28;20892;-62
2023/01/08 01:47:49;;;;;;;3.50;2.30;;;9.40;99.90;;;;;;5037457;28;20467;-62
2023/01/08 01:50:21;;;;;;;3.07;2.43;;;9.40;99.90;;;;;;5038277;28;20497;-62
2023/01/08 01:52:55;;;;;;;3.53;2.57;;;9.40;99.90;;;;;;5037620;28;20463;-62
2023/01/08 01:55:23;;;;;;;4.30;2.80;;;9.40;99.90;;;;;;5038025;28;20852;-63
2023/01/08 01:57:55;;;;;;;3.40;2.30;;;9.40;99.90;;;;;;5038443;28;20463;-63
2023/01/08 02:00:23;;;;;;;4.17;2.83;;;9.30;99.90;;;;;;5038186;28;20469;-62
2023/01/08 02:02:52;;;;;;;3.20;2.87;;;9.30;99.90;;;;;;5038037;28;20923;-62
2023/01/08 02:05:20;;;;;;;4.17;2.90;;;9.30;99.90;;;;;;5037787;28;20864;-62
2023/01/08 02:07:56;;;;;;;4.43;3.00;;;9.30;99.90;;;;;;5037798;28;20463;-63
2023/01/08 02:10:33;;;;;;;3.00;2.67;;;9.30;99.90;;;;;;5038273;28;20512;-63
2023/01/08 02:13:08;;;;;;;3.77;2.70;;;9.30;1.00;;;;;;5038614;28;20459;-63
2023/01/08 02:15:42;;;;;;;3.53;2.63;;;9.40;1.00;;;;;;5039082;28;20462;-63
2023/01/08 02:18:17;;;;;;;4.20;3.10;;;9.30;1.00;;;;;;5038956;28;20870;-63
2023/01/08 02:20:50;;;;;;;5.07;3.03;;;9.30;99.90;;;;;;5038967;28;20459;-62
2023/01/08 02:23:27;;;;;;;4.37;2.70;;;9.30;99.90;;;;;;5038424;28;20467;-63
2023/01/08 02:26:07;;;;;;;5.00;2.80;;;9.20;1.00;;;;;;5038109;28;20512;-63
2023/01/08 02:28:40;;;;;;;4.90;3.57;;;9.20;99.90;;;;;;5037109;28;20474;-64
2023/01/08 02:31:08;;;;;;;4.23;2.50;;;9.20;81.20;;;;;;5037726;28;20460;-64
2023/01/08 02:33:35;;;;;;;3.37;3.00;;;9.10;1.00;;;;;;5037750;28;20459;-64
2023/01/08 02:36:22;;;;;;;4.83;3.47;;;9.10;99.90;;;;;;5037126;28;20495;-64
2023/01/08 02:39:00;;;;;;;3.87;3.20;;;9.10;1.00;;;;;;5038041;28;20466;-63
2023/01/08 02:41:36;;;;;;;5.13;3.50;;;9.10;99.90;;;;;;5037869;28;20491;-63
2023/01/08 02:44:05;;;;;;;7.70;4.47;;;9.10;1.00;;;;;;5037932;28;20462;-63
2023/01/08 02:46:36;;;;;;;5.07;3.83;;;9.10;1.00;;;;;;5037947;28;20471;-63
2023/01/08 02:49:07;;;;;;;4.40;3.73;;;9.00;1.00;;;;;;5037508;28;20463;-64
2023/01/08 02:51:39;;;;;;;4.83;3.80;;;9.00;27.60;;;;;;5037484;28;20459;-63
2023/01/08 02:54:11;;;;;;;6.03;4.53;;;9.00;99.90;;;;;;5038014;28;20463;-64
2023/01/08 02:56:42;;;;;;;4.33;3.70;;;9.00;99.90;;;;;;5037705;28;20471;-64
2023/01/08 02:59:13;;;;;;;6.60;4.40;;;8.90;99.90;;;;;;5037609;28;20474;-64
2023/01/08 03:01:41;;;;;;;8.03;3.70;;;8.90;99.90;;;;;;5037406;28;20494;-63
2023/01/08 03:04:13;;;;;;;4.90;4.17;;;8.90;99.90;;;;;;5037900;28;20741;-63
2023/01/08 03:06:41;;;;;;;4.90;4.33;;;8.90;99.90;;;;;;5037627;28;20468;-64
2023/01/08 03:09:08;;;;;;;4.60;4.07;;;8.90;99.90;;;;;;5036535;28;20505;-64
2023/01/08 03:11:45;;;;;;;8.43;4.60;;;8.90;99.90;;;;;;5037725;28;20886;-63
2023/01/08 03:14:20;;;;;;;5.00;3.97;;;8.90;99.90;;;;;;5037433;28;20459;-63
2023/01/08 03:16:51;;;;;;;6.63;4.67;;;8.80;99.90;;;;;;5037636;28;20467;-63
2023/01/08 03:19:22;;;;;;;6.00;4.23;;;8.80;99.90;;;;;;5037624;28;20462;-63
2023/01/08 03:21:51;;;;;;;4.70;4.13;;;8.90;99.90;;;;;;5037821;28;20494;-63
2023/01/08 03:24:22;;;;;;;6.10;4.33;;;8.90;99.90;;;;;;5037087;28;20473;-62
2023/01/08 03:26:53;;;;;;;4.50;3.80;;;8.90;99.90;;;;;;5036533;28;20459;-63
2023/01/08 03:29:23;;;;;;;4.87;4.23;;;8.90;99.90;;;;;;5036663;28;20463;-63
2023/01/08 03:31:52;;;;;;;5.30;3.97;;;8.80;99.90;;;;;;5037105;28;20536;-63
2023/01/08 03:34:21;;;;;;;4.07;3.53;;;8.80;99.90;;;;;;5037360;28;20771;-63
2023/01/08 03:36:52;;;;;;;6.67;4.03;;;8.80;99.90;;;;;;5037334;28;20501;-63
2023/01/08 03:39:24;;;;;;;7.87;4.13;;;8.80;99.90;;;;;;5040855;28;20761;-63
2023/01/08 03:41:56;;;;;;;4.93;3.43;;;8.80;99.90;;;;;;5040958;28;20494;-63
2023/01/08 03:44:23;;;;;;;5.10;3.70;;;8.80;99.90;;;;;;5041224;28;20760;-64
2023/01/08 03:46:53;;;;;;;4.70;3.70;;;8.80;99.90;;;;;;5040660;28;20467;-62
2023/01/08 03:49:21;;;;;;;4.60;4.20;;;8.80;99.90;;;;;;5040494;28;20477;-63
2023/01/08 03:51:49;;;;;;;4.60;3.87;;;8.80;99.90;;;;;;5040884;28;20434;-63
2023/01/08 03:54:20;;;;;;;4.40;4.00;;;8.80;99.90;;;;;;5041168;28;20557;-62
2023/01/08 03:56:47;;;;;;;4.90;3.97;;;8.80;99.90;;;;;;5041040;28;20463;-62
2023/01/08 03:59:16;;;;;;;5.67;4.37;;;8.80;99.90;;;;;;5041196;28;20803;-63
2023/01/08 04:01:43;;;;;;;6.67;3.23;;;8.80;99.90;;;;;;5040781;28;20490;-63
2023/01/08 04:04:11;;;;;;;4.40;4.00;;;8.80;99.90;;;;;;5040865;28;20467;-64
2023/01/08 04:06:39;;;;;;;4.50;3.50;;;8.80;99.90;;;;;;5040461;28;20463;-64
2023/01/08 04:09:06;;;;;;;4.50;3.43;;;8.80;99.90;;;;;;5040064;28;20797;-63
2023/01/08 04:11:33;;;;;;;5.40;3.87;;;8.80;99.90;;;;;;5040415;28;20553;-63
2023/01/08 04:14:00;;;;;;;4.47;4.00;;;8.90;99.90;;;;;;5040221;28;20918;-64
2023/01/08 04:16:28;;;;;;;5.67;4.17;;;8.90;99.90;;;;;;5040233;28;20565;-64
2023/01/08 04:18:56;;;;;;;4.73;4.00;;;8.80;99.90;;;;;;5039594;28;20469;-63
2023/01/08 04:21:23;;;;;;;4.80;3.80;;;8.80;99.90;;;;;;5039859;28;20473;-63
2023/01/08 04:23:50;;;;;;;4.93;4.10;;;8.80;99.90;;;;;;5039752;28;20473;-64
2023/01/08 04:26:17;;;;;;;5.50;3.53;;;8.80;99.90;;;;;;5039464;28;20441;-64
2023/01/08 04:28:44;;;;;;;4.57;4.17;;;8.80;99.90;;;;;;5039193;28;20437;-65
2023/01/08 04:31:11;;;;;;;4.73;3.73;;;8.80;99.90;;;;;;5039026;28;20463;-65
2023/01/08 04:33:40;;;;;;;4.00;3.47;;;8.80;99.90;;;;;;5039057;28;20474;-65
2023/01/08 04:36:07;;;;;;;4.00;3.57;;;8.80;99.90;;;;;;5038898;28;20966;-65
2023/01/08 04:38:34;;;;;;;6.37;3.70;;;8.80;99.90;;;;;;5039270;28;20460;-64
2023/01/08 04:41:02;;;;;;;4.47;3.77;;;8.80;99.90;;;;;;5039181;28;20463;-64
2023/01/08 04:43:30;;;;;;;4.90;3.80;;;8.70;99.90;;;;;;5038931;28;20777;-65
2023/01/08 04:45:58;;;;;;;5.27;3.63;;;8.80;99.90;;;;;;5039049;28;20467;-65
2023/01/08 04:48:26;;;;;;;6.00;3.60;;;8.80;99.90;;;;;;5038143;28;20517;-65
2023/01/08 04:50:54;;;;;;;4.97;3.40;;;8.70;99.90;;;;;;5038700;28;20448;-64
2023/01/08 04:53:21;;;;;;;4.83;3.83;;;8.70;99.90;;;;;;5039097;28;20466;-63
2023/01/08 04:55:48;;;;;;;4.93;3.60;;;8.70;99.90;;;;;;5038822;28;20467;-64
2023/01/08 04:58:16;;;;;;;4.83;3.70;;;8.70;99.90;;;;;;5039209;28;20474;-63
2023/01/08 05:00:43;;;;;;;3.30;2.90;;;8.70;99.90;;;;;;5038983;28;20459;-63
2023/01/08 05:03:10;;;;;;;4.83;3.40;;;8.70;99.90;;;;;;5039103;28;20501;-63
2023/01/08 05:05:37;;;;;;;3.87;3.27;;;8.70;99.90;;;;;;5039204;28;20479;-64
2023/01/08 05:08:06;;;;;;;4.80;3.60;;;8.60;99.90;;;;;;5039067;28;20463;-64
2023/01/08 05:10:33;;;;;;;3.67;2.83;;;8.70;99.90;;;;;;5038985;28;20442;-64
2023/01/08 05:13:01;;;;;;;4.40;3.67;;;8.70;99.90;;;;;;5038784;28;20463;-64
2023/01/08 05:15:28;;;;;;;4.43;3.90;;;8.70;99.90;;;;;;5039263;28;20467;-63
2023/01/08 05:17:59;;;;;;;4.67;3.40;;;8.60;99.90;;;;;;5039469;28;20463;-63
2023/01/08 05:20:26;;;;;;;3.83;3.30;;;8.60;99.90;;;;;;5039240;28;20914;-64
2023/01/08 05:22:55;;;;;;;3.90;3.50;;;8.70;99.90;;;;;;5038538;28;20494;-63
2023/01/08 05:25:23;;;;;;;3.90;3.33;;;8.60;99.90;;;;;;5038603;28;20896;-63
2023/01/08 05:27:51;;;;;;;3.90;3.43;;;8.60;99.90;;;;;;5038526;28;20697;-63
2023/01/08 05:30:18;;;;;;;6.50;3.87;;;8.60;99.90;;;;;;5037944;28;20765;-63
2023/01/08 05:32:45;;;;;;;4.30;3.90;;;8.60;99.90;;;;;;5038913;28;20478;-64
2023/01/08 05:35:12;;;;;;;4.80;3.73;;;8.70;99.90;;;;;;5038115;28;20487;-63
2023/01/08 05:37:39;;;;;;;3.90;3.50;;;8.70;99.90;;;;;;5038318;28;20534;-63
2023/01/08 05:40:07;;;;;;;4.37;3.20;;;8.60;99.90;;;;;;5038273;28;20462;-63
2023/01/08 05:42:36;;;;;;;4.13;3.10;;;8.70;99.90;;;;;;5037887;28;20469;-63
2023/01/08 05:45:04;;;;;;;4.10;2.93;;;8.70;99.90;;;;;;5037624;28;20459;-63
2023/01/08 05:47:31;;;;;;;4.10;3.47;;;8.70;99.90;;;;;;5037509;28;20473;-64
2023/01/08 05:49:58;;;;;;;6.23;3.13;;;8.60;99.90;;;;;;5037702;28;20441;-63
2023/01/08 05:52:25;;;;;;;4.30;3.37;;;8.60;99.90;;;;;;5037857;28;20470;-64
2023/01/08 05:54:53;;;;;;;4.20;3.80;;;8.60;99.90;;;;;;5037210;28;20474;-64
2023/01/08 05:57:20;;;;;;;4.03;3.63;;;8.60;99.90;;;;;;5037348;28;20463;-64
2023/01/08 05:59:48;;;;;;;3.40;3.00;;;8.60;99.90;;;;;;5036669;28;20459;-64
2023/01/08 06:02:15;;;;;;;3.33;2.93;;;8.60;99.90;;;;;;5037781;28;20531;-64
2023/01/08 06:04:42;;;;;;;3.97;3.07;;;8.60;99.90;;;;;;5037664;28;20470;-64
2023/01/08 06:07:10;;;;;;;3.23;2.60;;;8.60;99.90;;;;;;5037186;28;20495;-63
2023/01/08 06:09:37;;;;;;;3.77;2.60;;;8.50;99.90;;;;;;5037511;28;20857;-64
2023/01/08 06:12:04;;;;;;;3.80;3.07;;;8.50;99.90;;;;;;5037332;28;20919;-63
2023/01/08 06:14:31;;;;;;;4.17;2.80;;;8.50;99.90;;;;;;5037611;28;20459;-63
2023/01/08 06:17:00;;;;;;;4.37;2.37;;;8.50;99.90;;;;;;5037290;28;20449;-64
2023/01/08 06:19:27;;;;;;;3.30;2.60;;;8.50;99.90;;;;;;5037616;28;20440;-63
2023/01/08 06:21:54;;;;;;;3.63;2.83;;;8.40;99.90;;;;;;5037123;28;20442;-63
2023/01/08 06:24:21;;;;;;;2.90;2.27;;;8.40;99.90;;;;;;5037749;28;20477;-63
2023/01/08 06:26:48;;;;;;;3.07;2.40;;;8.30;99.90;;;;;;5036945;28;20463;-64
2023/01/08 06:29:15;;;;;;;2.70;2.10;;;8.30;99.90;;;;;;5034720;28;20438;-64
2023/01/08 06:31:42;;;;;;;2.73;2.30;;;8.30;99.90;;;;;;5036571;28;20784;-63
2023/01/08 06:34:11;;;;;;;2.90;2.50;;;8.40;99.90;;;;;;5036543;28;20460;-63
2023/01/08 06:36:38;;;;;;;3.67;2.43;;;8.40;99.90;;;;;;5036099;28;20483;-63
2023/01/08 06:39:06;;;;;;;4.63;2.43;;;8.40;99.90;;;;;;5037008;28;20467;-64
2023/01/08 06:41:33;;;;;;;2.60;2.30;;;8.30;99.90;;;;;;5034424;28;20474;-64
2023/01/08 06:44:00;;;;;;;3.00;2.30;;;8.30;99.90;;;;;;5016761;28;20521;-63
2023/01/08 06:46:27;;;;;;;2.37;2.00;;;8.30;99.90;;;;;;5017423;28;20464;-64
2023/01/08 06:48:54;;;;;;;3.13;2.33;;;8.30;99.90;;;;;;5016984;28;20439;-63
2023/01/08 06:51:23;;;;;;;2.90;2.20;;;8.30;99.90;;;;;;5017324;28;20781;-64
2023/01/08 06:53:50;;;;;;;3.40;2.30;;;8.30;99.90;;;;;;5017228;28;20469;-63
2023/01/08 06:56:17;;;;;;;2.80;2.13;;;8.40;99.90;;;;;;5017272;28;20474;-63
2023/01/08 06:58:44;;;;;;;2.43;1.97;;;8.40;99.90;;;;;;5017329;28;20440;-63
2023/01/08 07:01:14;;;;;;;3.10;2.30;;;8.40;99.90;;;;;;5017178;28;20460;-63
2023/01/08 07:03:41;;;;;;;2.73;2.13;;;8.40;99.90;;;;;;5017378;28;20492;-63
2023/01/08 07:06:14;;;;;;;2.47;1.97;;;8.30;99.90;;;;;;5017302;28;20893;-63
2023/01/08 07:08:43;;;;;;;2.50;1.90;;;8.40;99.90;;;;;;5017228;28;20460;-64
2023/01/08 07:11:10;;;;;;;2.77;2.03;;;8.30;99.90;;;;;;5016712;28;20468;-63
2023/01/08 07:13:37;;;;;;;2.80;1.93;;;8.40;99.90;;;;;;5020778;28;20456;-63
2023/01/08 07:16:08;;;;;;;3.00;2.00;;;8.40;99.90;;;;;;5021115;28;20722;-63
2023/01/08 07:18:35;;;;;;;2.67;1.80;;;8.40;99.90;;;;;;5020911;28;20464;-63
2023/01/08 07:21:03;;;;;;;3.50;1.90;;;8.40;99.90;;;;;;5021078;28;20752;-63
2023/01/08 07:23:30;;;;;;;4.13;1.93;;;8.50;99.90;;;;;;5021061;28;20495;-63
2023/01/08 07:26:01;;;;;;;3.20;1.67;;;8.50;99.90;;;;;;5020977;28;20471;-62
2023/01/08 07:28:29;;;;;;;2.20;1.50;;;8.40;99.90;;;;;;5020653;28;20467;-65
2023/01/08 07:30:56;;;;;;;2.03;1.50;;;8.20;99.90;;;;;;5020138;28;20463;-63
2023/01/08 07:33:23;;;;;;;2.00;1.70;;;8.10;99.90;;;;;;5020756;28;20464;-65
2023/01/08 07:35:52;;;;;;;2.77;1.90;;;8.10;99.90;;;;;;5020561;28;20803;-65
2023/01/08 07:38:20;;;;;;;3.07;1.43;;;8.10;99.90;;;;;;5020545;28;20464;-64
2023/01/08 07:40:47;;;;;;;2.33;1.80;;;8.20;99.90;;;;;;5020124;28;20459;-65
2023/01/08 07:43:15;;;;;;;3.47;1.70;;;8.10;99.90;;;;;;5020357;28;20496;-64
2023/01/08 07:45:42;;;;;;;2.83;1.60;;;8.20;99.90;;;;;;5020044;28;20487;-65
2023/01/08 07:48:14;;;;;;;3.67;1.50;;;8.20;99.90;;;;;;5020451;28;20467;-64
2023/01/08 07:50:43;;;;;;;3.83;1.90;;;8.10;99.90;;;;;;5020474;28;20466;-63
2023/01/08 07:53:11;;;;;;;2.30;1.50;;;8.10;99.90;;;;;;5020149;28;20439;-64
2023/01/08 07:55:38;;;;;;;3.07;1.20;;;8.00;99.90;;;;;;5019968;28;20745;-64
2023/01/08 07:58:09;;;;;;;3.00;1.20;;;8.00;99.90;;;;;;5020101;28;20468;-63
2023/01/08 08:00:38;;;;;;;4.47;1.40;;;7.90;99.90;;;;;;5020298;28;20489;-63
2023/01/08 08:03:06;;;;;;;2.53;1.50;;;7.90;99.90;;;;;;5019734;28;20538;-63
2023/01/08 08:05:34;;;;;;;6.00;1.53;;;7.90;99.90;;;;;;5019943;28;20463;-63
2023/01/08 08:08:01;;;;;;;3.10;1.87;;;7.90;99.90;;;;;;5019961;28;20559;-62
2023/01/08 08:10:28;;;;;;;2.53;1.53;;;7.90;99.90;;;;;;5019461;28;20445;-62
2023/01/08 08:12:55;;;;;;;3.13;1.70;;;7.80;99.90;;;;;;5018770;28;20460;-63
2023/01/08 08:15:23;;;;;;;6.87;2.70;;;7.80;99.90;;;;;;5019336;28;20558;-63
2023/01/08 08:17:51;;;;;;;2.20;1.50;;;7.80;99.90;;;;;;5042294;28;20447;-63
2023/01/08 08:20:18;;;;;;;3.90;1.90;;;7.80;99.90;;;;;;5021819;28;20554;-62
2023/01/08 08:22:45;;;;;;;4.80;2.00;;;7.80;99.90;;;;;;5018640;28;20469;-62
2023/01/08 08:25:14;;;;;;;4.63;1.70;;;7.70;99.90;;;;;;5019283;28;20462;-62
2023/01/08 08:27:41;;;;;;;5.00;2.27;;;7.70;99.90;;;;;;5019938;28;20477;-62
2023/01/08 08:30:09;;;;;;;25.50;16.10;;;7.80;99.90;;;;;;5019846;28;20472;-62
2023/01/08 08:32:37;;;;;;;4.60;2.47;;;7.70;99.90;;;;;;5019449;28;20463;-62
2023/01/08 08:35:06;;;;;;;4.53;2.47;;;7.70;99.90;;;;;;5019492;28;20537;-63
2023/01/08 08:37:34;;;;;;;3.70;2.03;;;7.70;99.90;;;;;;5019512;28;20464;-63
2023/01/08 08:40:01;;;;;;;4.17;1.70;;;7.60;99.90;;;;;;5019025;28;20475;-63
2023/01/08 08:42:28;;;;;;;6.50;2.73;;;7.60;99.90;;;;;;5019393;28;20916;-62
2023/01/08 08:44:55;;;;;;;4.87;2.30;;;7.60;99.90;;;;;;5019105;28;20446;-62
2023/01/08 08:47:22;;;;;;;6.97;2.20;;;7.60;99.90;;;;;;5019288;28;20464;-63
2023/01/08 08:49:49;;;;;;;6.17;2.17;;;7.60;99.90;;;;;;5018763;28;20471;-63
2023/01/08 08:52:18;;;;;;;3.83;2.47;;;7.60;99.90;;;;;;5018171;28;20566;-62
2023/01/08 08:54:45;;;;;;;4.30;1.80;;;7.60;99.90;;;;;;5017909;28;20510;-63
2023/01/08 08:57:12;;;;;;;7.60;2.20;;;7.60;99.90;;;;;;5017813;28;20442;-62
2023/01/08 08:59:39;;;;;;;7.70;2.73;;;7.70;99.90;;;;;;5017558;28;20483;-62
2023/01/08 09:02:07;;;;;;;6.70;2.53;;;7.70;99.90;;;;;;5018445;28;20438;-63
2023/01/08 09:04:35;;;;;;;4.93;2.07;;;7.70;99.90;;;;;;5019270;28;20472;-63
2023/01/08 09:07:02;;;;;;;5.90;2.23;;;7.60;99.90;;;;;;5019111;28;20445;-63
2023/01/08 09:09:30;;;;;;;6.07;3.20;;;7.60;99.90;;;;;;5019124;28;20482;-63
2023/01/08 09:11:57;;;;;;;6.67;3.30;;;7.60;99.90;;;;;;5019333;28;20466;-62
2023/01/08 09:14:25;;;;;;;7.60;2.93;;;7.60;99.90;;;;;;5019255;28;20912;-62
2023/01/08 09:16:52;;;;;;;10.13;4.00;;;7.60;99.90;;;;;;5019399;28;20451;-62
2023/01/08 09:19:19;;;;;;;16.60;5.90;;;7.50;99.90;;;;;;5018732;28;20752;-62
2023/01/08 09:21:46;;;;;;;11.63;6.13;;;7.50;99.90;;;;;;5019173;28;20504;-62
2023/01/08 09:24:13;;;;;;;17.13;7.63;;;7.50;99.90;;;;;;5019233;28;20474;-62
2023/01/08 09:26:42;;;;;;;9.70;6.50;;;7.60;99.90;;;;;;5019600;28;20891;-62
2023/01/08 09:29:09;;;;;;;10.20;5.50;;;7.70;99.90;;;;;;5019179;28;20482;-62
2023/01/08 09:31:36;;;;;;;13.70;3.43;;;7.80;99.90;;;;;;5018701;28;20464;-62
2023/01/08 09:34:03;;;;;;;8.90;3.70;;;7.90;99.90;;;;;;5018179;28;20463;-63
2023/01/08 09:36:30;;;;;;;10.87;3.40;;;8.10;99.90;;;;;;5018207;28;20499;-62
2023/01/08 09:38:57;;;;;;;9.60;2.67;;;8.30;99.90;;;;;;5018705;28;20464;-62
2023/01/08 09:41:28;;;;;;;4.97;2.70;;;8.40;99.90;;;;;;5018697;28;20917;-63
2023/01/08 09:43:58;;;;;;;6.33;2.90;;;8.40;99.90;;;;;;5018523;28;20492;-62
2023/01/08 09:46:27;;;;;;;13.57;3.33;;;8.40;99.90;;;;;;5018738;28;20754;-62
2023/01/08 09:48:57;;;;;;;7.40;3.00;;;8.40;99.90;;;;;;5018683;28;20467;-62
2023/01/08 09:51:33;;;;;;;7.63;3.30;;;8.40;99.90;;;;;;5018566;28;20905;-62
2023/01/08 09:54:00;;;;;;;7.23;2.87;;;8.40;99.90;;;;;;5018669;28;20471;-62
2023/01/08 09:56:28;;;;;;;9.23;2.53;;;8.40;99.90;;;;;;5018271;28;20464;-62
2023/01/08 09:58:59;;;;;;;10.47;2.93;;;8.40;99.90;;;;;;5018125;28;20485;-62
2023/01/08 10:01:28;;;;;;;5.93;2.40;;;8.40;99.90;;;;;;5018664;28;20459;-63
2023/01/08 10:04:03;;;;;;;6.40;3.83;;;8.50;99.90;;;;;;5017993;28;20499;-62
2023/01/08 10:06:30;;;;;;;9.03;4.80;;;8.50;99.90;;;;;;5019156;28;20449;-63
2023/01/08 10:08:58;;;;;;;12.47;3.10;;;8.60;99.90;;;;;;5018558;28;20790;-63
2023/01/08 10:11:28;;;;;;;6.63;3.50;;;8.80;99.90;;;;;;5018130;28;20463;-63
2023/01/08 10:13:57;;;;;;;7.13;5.00;;;8.90;99.90;;;;;;5018478;28;20431;-63
2023/01/08 10:16:30;;;;;;;6.30;4.40;;;9.20;99.90;;;;;;5017955;28;20751;-63
2023/01/08 10:18:58;;;;;;;6.40;4.00;;;9.30;99.90;;;;;;5015959;28;20749;-62
2023/01/08 10:21:30;;;;;;;6.57;3.73;;;9.30;99.90;;;;;;5015773;28;20468;-63
2023/01/08 10:23:57;;;;;;;5.37;4.10;;;9.50;99.90;;;;;;5016086;28;20547;-63
2023/01/08 10:26:29;;;;;;;8.63;2.90;;;9.70;99.90;;;;;;5014765;28;20468;-63
2023/01/08 10:29:25;;;;;;;7.10;4.23;;;10.10;99.90;;;;;;5015405;28;20777;-63
2023/01/08 10:31:54;;;;;;;4.83;2.40;;;10.40;99.90;;;;;;4969061;28;20852;-63
2023/01/08 10:34:26;;;;;;;5.73;2.20;;;10.60;1.00;;;;;;5015634;28;20441;-63
2023/01/08 10:36:55;;;;;;;3.83;2.70;;;10.60;1.00;;;;;;5015621;28;20492;-63
2023/01/08 10:39:25;;;;;;;3.33;2.47;;;10.70;1.00;;;;;;5015382;28;20467;-63
2023/01/08 10:41:55;;;;;;;4.50;2.20;;;10.80;99.90;;;;;;5016136;28;20514;-63
2023/01/08 10:44:25;;;;;;;2.73;1.73;;;10.90;99.90;;;;;;5027113;28;20935;-63
2023/01/08 10:46:55;;;;;;;4.00;2.17;;;10.80;1.00;;;;;;5037971;28;20474;-63
2023/01/08 10:49:30;;;;;;;3.03;1.87;;;10.80;1.00;;;;;;5039293;28;20466;-63
2023/01/08 10:51:58;;;;;;;5.97;1.83;;;10.90;1.00;;;;;;5035034;28;21019;-63
2023/01/08 10:54:32;;;;;;;3.30;1.90;;;11.00;1.00;;;;;;5033634;28;20471;-63
2023/01/08 10:56:59;;;;;;;2.47;2.00;;;11.10;1.00;;;;;;5040692;28;20868;-63
2023/01/08 10:59:28;;;;;;;3.87;2.17;;;11.10;1.00;;;;;;5040723;28;20888;-63
2023/01/08 11:01:57;;;;;;;3.10;2.10;;;11.10;1.00;;;;;;5030604;28;20772;-63
2023/01/08 11:04:31;;;;;;;2.73;1.73;;;11.10;1.00;;;;;;5021141;28;20466;-63
2023/01/08 11:07:01;;;;;;;4.07;2.03;;;10.80;1.00;;;;;;5036816;28;20474;-63
2023/01/08 11:09:31;;;;;;;3.23;2.07;;;10.40;1.00;;;;;;5028617;28;20880;-63
2023/01/08 11:11:59;;;;;;;4.60;2.13;;;10.30;1.00;;;;;;5020649;28;20438;-61
2023/01/08 11:14:30;;;;;;;3.23;2.33;;;10.20;1.00;;;;;;5020727;28;20460;-62
2023/01/08 11:16:59;;;;;;;4.43;2.13;;;10.00;1.00;;;;;;5020235;28;20460;-61
2023/01/08 11:19:28;;;;;;;5.93;2.40;;;10.00;1.00;;;;;;5019708;28;21612;-62
2023/01/08 11:21:56;;;;;;;4.13;2.37;;;10.10;1.00;;;;;;5030847;28;20475;-61
2023/01/08 11:24:31;;;;;;;4.67;2.30;;;9.90;1.00;;;;;;5040722;28;20997;-61
2023/01/08 11:27:02;;;;;;;4.00;2.20;;;9.90;1.00;;;;;;5039985;28;20473;-62
2023/01/08 11:29:38;;;;;;;3.37;2.30;;;9.90;1.00;;;;;;5032442;28;20475;-61
2023/01/08 11:32:26;;;;;;;6.03;2.00;;;9.90;7.50;;;;;;5040184;28;20454;-62
2023/01/08 11:34:58;;;;;;;3.30;2.00;;;9.90;1.00;;;;;;5039810;28;20467;-61
2023/01/08 11:37:28;;;;;;;2.90;1.80;;;9.90;1.00;;;;;;5039930;28;20463;-61
2023/01/08 11:39:56;;;;;;;2.63;1.93;;;9.70;1.00;;;;;;5040008;28;20430;-62
2023/01/08 11:42:39;;;;;;;4.63;2.23;;;9.60;1.00;;;;;;5039983;28;20478;-61
2023/01/08 11:45:20;;;;;;;4.03;2.60;;;9.70;1.00;;;;;;5039778;28;20506;-61
2023/01/08 11:48:11;;;;;;;3.50;1.80;;;9.70;1.00;;;;;;5040058;28;20470;-61
2023/01/08 11:50:49;;;;;;;6.27;1.80;;;9.80;1.00;;;;;;5040165;28;20482;-63
2023/01/08 11:53:24;;;;;;;5.20;2.30;;;9.80;1.00;;;;;;5037959;28;20467;-60
2023/01/08 11:56:01;;;;;;;4.93;2.60;;;9.90;1.00;;;;;;5035605;28;20554;-61
2023/01/08 11:58:40;;;;;;;4.17;2.10;;;9.90;1.00;;;;;;5018457;28;20542;-61
2023/01/08 12:01:30;;;;;;;3.77;2.67;;;10.00;1.00;;;;;;5032344;28;20558;-61
2023/01/08 12:04:13;;;;;;;4.77;2.30;;;10.00;1.00;;;;;;5030450;28;20963;-61
2023/01/08 12:06:48;;;;;;;6.10;2.70;;;10.00;1.00;;;;;;5020804;28;20940;-62
2023/01/08 12:09:27;;;;;;;4.00;2.50;;;10.00;1.00;;;;;;5018465;28;20466;-61
2023/01/08 12:12:03;;;;;;;5.83;2.13;;;10.00;1.00;;;;;;5023518;28;20488;-61
2023/01/08 12:14:45;;;;;;;3.33;2.47;;;10.10;1.00;;;;;;5025519;28;20459;-61
2023/01/08 12:17:51;;;;;;;3.20;1.90;;;10.10;1.00;;;;;;5025214;28;20430;-61
2023/01/08 12:20:30;;;;;;;4.17;2.20;;;10.00;1.00;;;;;;5029136;28;20435;-61
2023/01/08 12:23:06;;;;;;;3.93;2.10;;;10.10;1.00;;;;;;5018873;28;20434;-61
2023/01/08 12:26:00;;;;;;;4.83;2.50;;;10.10;1.00;;;;;;5035326;28;20491;-61
2023/01/08 12:29:08;;;;;;;3.87;2.70;;;10.00;1.00;;;;;;5035504;28;20467;-61
2023/01/08 12:31:53;;;;;;;3.20;2.40;;;9.90;18.10;;;;;;5024782;28;20463;-61
2023/01/08 12:34:32;;;;;;;4.23;2.10;;;9.90;34.90;;;;;;5037713;28;20570;-61
2023/01/08 12:37:08;;;;;;;2.50;2.10;;;9.90;99.90;;;;;;5037296;28;20495;-61
2023/01/08 12:39:55;;;;;;;5.93;2.80;;;9.90;99.90;;;;;;5034151;28;20462;-61
2023/01/08 12:42:27;;;;;;;4.00;2.20;;;9.90;99.90;;;;;;5038794;28;20495;-61
2023/01/08 12:44:57;;;;;;;4.33;2.27;;;9.90;99.90;;;;;;5038131;28;20491;-61
2023/01/08 12:47:28;;;;;;;4.50;2.27;;;10.00;99.90;;;;;;5038075;28;20458;-61
2023/01/08 12:50:05;;;;;;;6.13;2.20;;;10.10;4.20;;;;;;5038702;28;20467;-62
2023/01/08 12:52:39;;;;;;;3.20;2.10;;;10.10;1.00;;;;;;5038768;28;20461;-61
2023/01/08 12:55:17;;;;;;;2.20;1.53;;;10.10;1.00;;;;;;5035605;28;20478;-60
2023/01/08 12:57:51;;;;;;;3.90;2.07;;;10.20;1.00;;;;;;5032790;28;20479;-62
2023/01/08 13:00:24;;;;;;;3.90;2.80;;;10.20;1.00;;;;;;5027045;28;20517;-61
2023/01/08 13:02:57;;;;;;;3.97;1.50;;;10.40;1.00;;;;;;5016705;28;20876;-60
2023/01/08 13:05:34;;;;;;;3.20;1.57;;;10.70;1.00;;;;;;5016820;28;20488;-62
2023/01/08 13:08:04;;;;;;;2.30;1.50;;;10.90;1.00;;;;;;5016169;28;20568;-58
2023/01/08 13:10:37;;;;;;;3.20;2.17;;;10.90;1.00;;;;;;5023613;28;20558;-60
2023/01/08 13:13:06;;;;;;;3.27;1.80;;;10.90;1.00;;;;;;5036105;28;20445;-61